Time;durP1;ratioP1;P1;durP2;ratioP2;P2;SDS_P1;SDS_P2;PMS_P1;PMS_P2;Temp;Humidity;BMP_temperature;BMP_pressure;BME280_temperature;BME280_humidity;BME280_pressure;Samples;Min_cycle;Max_cycle;Signal;HPM_P1;HPM_P2
2024/04/12 00:01:03;;;;;;;;;;;;;;;20.52;38.59;100437.72;5418241;26;19941;-79
2024/04/12 00:03:29;;;;;;;;;;;;;;;20.53;39.15;100434.81;5417954;26;19929;-80
2024/04/12 00:05:57;;;;;;;;;;;;;;;20.55;38.40;100431.91;5415228;26;19978;-80
2024/04/12 00:08:23;;;;;;;;;;;;;;;20.53;40.31;100432.13;5417872;26;19929;-78
2024/04/12 00:10:48;;;;;;;;;;;;;;;20.51;40.29;100430.72;5418236;26;19929;-80
2024/04/12 00:13:13;;;;;;;;;;;;;;;20.50;39.10;100427.19;5418087;26;19936;-78
2024/04/12 00:15:41;;;;;;;;;;;;;;;20.51;39.25;100433.38;5418281;26;19936;-80
2024/04/12 00:18:07;;;;;;;;;;;;;;;20.51;38.66;100436.06;5416024;26;19999;-80
2024/04/12 00:20:32;;;;;;;;;;;;;;;20.50;38.41;100426.38;5418474;26;19936;-78
2024/04/12 00:22:57;;;;;;;;;;;;;;;20.47;39.56;100432.19;5417920;26;19959;-79
2024/04/12 00:25:23;;;;;;;;;;;;;;;20.47;38.62;100421.47;5418210;26;19932;-79
2024/04/12 00:27:49;;;;;;;;;;;;;;;20.44;39.16;100432.63;5418011;26;19940;-79
2024/04/12 00:30:37;;;;;;;;;;;;;;;20.44;38.96;100422.72;5418450;26;19937;-80
2024/04/12 00:33:00;;;;;;;;;;;;;;;20.39;40.69;100425.25;5417730;26;20516;-79
2024/04/12 00:35:34;;;;;;;;;;;;;;;20.38;40.64;100426.25;5416023;26;19956;-79
2024/04/12 00:38:03;;;;;;;;;;;;;;;20.40;39.58;100431.44;5417681;26;19929;-79
2024/04/12 00:40:32;;;;;;;;;;;;;;;20.39;40.32;100421.72;5417746;26;19933;-80
2024/04/12 00:43:11;;;;;;;;;;;;;;;20.35;39.95;100424.00;5417528;26;19933;-80
2024/04/12 00:45:40;;;;;;;;;;;;;;;20.34;39.37;100419.69;5418000;26;20419;-80
2024/04/12 00:48:07;;;;;;;;;;;;;;;20.33;40.95;100423.41;5415644;26;19957;-80
2024/04/12 00:50:36;;;;;;;;;;;;;;;20.30;40.95;100418.50;5417491;26;19936;-79
2024/04/12 00:53:03;;;;;;;;;;;;;;;20.26;40.92;100420.78;5417540;26;20038;-80
2024/04/12 00:55:32;;;;;;;;;;;;;;;20.28;39.68;100428.63;5417567;26;19933;-79
2024/04/12 00:57:59;;;;;;;;;;;;;;;20.29;40.34;100425.72;5415518;26;19964;-79
2024/04/12 01:00:34;;;;;;;;;;;;;;;20.27;40.22;100426.97;5415567;26;20254;-79
2024/04/12 01:03:02;;;;;;;;;;;;;;;20.28;40.24;100418.72;5415363;26;19929;-79
2024/04/12 01:05:28;;;;;;;;;;;;;;;20.30;39.87;100422.00;5417590;26;19929;-79
2024/04/12 01:07:55;;;;;;;;;;;;;;;20.28;40.47;100421.41;5417203;26;19937;-79
2024/04/12 01:10:24;;;;;;;;;;;;;;;20.30;40.18;100421.16;5417205;26;19978;-79
2024/04/12 01:12:55;;;;;;;;;;;;;;;20.33;39.09;100422.59;5415203;26;20382;-79
2024/04/12 01:15:20;;;;;;;;;;;;;;;20.25;39.76;100421.84;5417732;26;19928;-79
2024/04/12 01:17:46;;;;;;;;;;;;;;;20.21;40.09;100423.31;5419953;26;19928;-79
2024/04/12 01:20:11;;;;;;;;;;;;;;;20.22;40.33;100424.13;5423688;26;20366;-79
2024/04/12 01:22:36;;;;;;;;;;;;;;;20.23;38.74;100425.78;5423078;26;19939;-79
2024/04/12 01:25:05;;;;;;;;;;;;;;;20.22;39.71;100426.81;5420482;26;19929;-80
2024/04/12 01:27:34;;;;;;;;;;;;;;;20.22;39.78;100426.81;5420975;26;19940;-79
2024/04/12 01:30:00;;;;;;;;;;;;;;;20.21;40.25;100428.69;5420747;26;19936;-79
2024/04/12 01:32:26;;;;;;;;;;;;;;;20.20;39.73;100429.72;5418768;26;19965;-80
2024/04/12 01:34:52;;;;;;;;;;;;;;;20.18;40.13;100429.13;5420841;26;20429;-79
2024/04/12 01:37:20;;;;;;;;;;;;;;;20.16;39.98;100428.50;5420302;26;19975;-79
2024/04/12 01:39:48;;;;;;;;;;;;;;;20.16;40.33;100427.69;5420236;26;19929;-79
2024/04/12 01:42:16;;;;;;;;;;;;;;;20.15;40.75;100439.47;5420366;26;19933;-79
2024/04/12 01:45:13;;;;;;;;;;;;;;;20.14;40.64;100433.28;5420459;26;19936;-79
2024/04/12 01:47:34;;;;;;;;;;;;;;;20.16;39.91;100431.19;5419967;26;19998;-79
2024/04/12 01:50:01;;;;;;;;;;;;;;;20.17;40.42;100426.66;5420548;26;19929;-79
2024/04/12 01:52:26;;;;;;;;;;;;;;;20.17;39.37;100432.84;5420199;26;19935;-79
2024/04/12 01:55:05;;;;;;;;;;;;;;;20.18;39.40;100434.47;5420169;26;19929;-80
2024/04/12 01:57:30;;;;;;;;;;;;;;;20.15;39.78;100434.91;5418164;26;19937;-79
2024/04/12 01:59:55;;;;;;;;;;;;;;;20.12;39.54;100439.91;5420207;26;19929;-79
2024/04/12 02:02:21;;;;;;;;;;;;;;;20.11;40.24;100439.06;5420080;26;19998;-79
2024/04/12 02:04:51;;;;;;;;;;;;;;;20.07;40.32;100439.72;5418261;26;19929;-79
2024/04/12 02:07:16;;;;;;;;;;;;;;;20.07;40.07;100429.81;5420097;26;19929;-80
2024/04/12 02:09:42;;;;;;;;;;;;;;;20.10;39.35;100437.44;5417895;26;20369;-79
2024/04/12 02:12:07;;;;;;;;;;;;;;;20.10;40.17;100437.44;5419752;26;19928;-79
2024/04/12 02:14:33;;;;;;;;;;;;;;;20.09;39.38;100435.78;5419619;26;20271;-79
2024/04/12 02:16:58;;;;;;;;;;;;;;;20.04;40.12;100435.59;5419401;26;19928;-79
2024/04/12 02:19:25;;;;;;;;;;;;;;;20.05;39.93;100433.72;5420070;26;19933;-79
2024/04/12 02:21:53;;;;;;;;;;;;;;;20.03;39.80;100442.00;5420320;26;20259;-79
2024/04/12 02:24:18;;;;;;;;;;;;;;;20.05;39.93;100441.78;5420291;26;20358;-79
2024/04/12 02:26:46;;;;;;;;;;;;;;;20.06;39.21;100441.56;5419291;26;19940;-79
2024/04/12 02:29:11;;;;;;;;;;;;;;;20.08;39.45;100442.19;5418968;26;20358;-79
2024/04/12 02:31:36;;;;;;;;;;;;;;;20.05;39.96;100433.72;5417995;26;19936;-79
2024/04/12 02:34:02;;;;;;;;;;;;;;;20.03;39.73;100435.81;5420086;26;19933;-79
2024/04/12 02:36:30;;;;;;;;;;;;;;;20.02;39.71;100436.84;5419807;26;19936;-79
2024/04/12 02:38:56;;;;;;;;;;;;;;;20.02;39.24;100440.34;5418068;26;19998;-80
2024/04/12 02:41:21;;;;;;;;;;;;;;;20.02;40.19;100442.22;5420353;26;19941;-79
2024/04/12 02:43:53;;;;;;;;;;;;;;;19.98;39.49;100437.28;5418200;26;19929;-79
2024/04/12 02:46:19;;;;;;;;;;;;;;;19.99;39.73;100436.25;5419733;26;19956;-79
2024/04/12 02:48:44;;;;;;;;;;;;;;;19.97;39.98;100442.88;5417748;26;19953;-79
2024/04/12 02:51:13;;;;;;;;;;;;;;;19.96;40.04;100438.53;5419896;26;19936;-79
2024/04/12 02:53:38;;;;;;;;;;;;;;;19.93;39.53;100438.97;5419708;26;19929;-79
2024/04/12 02:56:10;;;;;;;;;;;;;;;19.91;39.50;100435.69;5419443;26;20384;-79
2024/04/12 02:58:39;;;;;;;;;;;;;;;19.91;39.59;100438.38;5419468;26;20310;-78
2024/04/12 03:01:10;;;;;;;;;;;;;;;19.93;39.33;100433.63;5419953;26;19929;-79
2024/04/12 03:03:41;;;;;;;;;;;;;;;19.92;39.51;100438.16;5419960;26;19957;-78
2024/04/12 03:06:09;;;;;;;;;;;;;;;19.87;39.84;100446.03;5417718;26;19928;-80
2024/04/12 03:08:36;;;;;;;;;;;;;;;19.86;39.71;100441.69;5419637;26;19941;-79
2024/04/12 03:11:13;;;;;;;;;;;;;;;19.86;40.03;100438.19;5417412;26;19929;-79
2024/04/12 03:13:39;;;;;;;;;;;;;;;19.86;39.63;100447.06;5419377;26;19955;-79
2024/04/12 03:16:08;;;;;;;;;;;;;;;19.83;39.86;100449.34;5419621;26;19940;-79
2024/04/12 03:18:33;;;;;;;;;;;;;;;19.85;40.31;100453.47;5418649;26;19929;-79
2024/04/12 03:20:59;;;;;;;;;;;;;;;19.86;40.22;100451.59;5419164;26;19936;-79
2024/04/12 03:23:25;;;;;;;;;;;;;;;19.87;39.38;100450.56;5418519;26;19993;-80
2024/04/12 03:25:52;;;;;;;;;;;;;;;19.87;39.54;100456.75;5417019;26;19937;-79
2024/04/12 03:28:18;;;;;;;;;;;;;;;19.89;39.85;100459.22;5416907;26;19944;-79
2024/04/12 03:30:43;;;;;;;;;;;;;;;19.89;39.72;100453.84;5417103;26;19929;-78
2024/04/12 03:33:08;;;;;;;;;;;;;;;19.89;39.78;100456.53;5418580;26;20382;-79
2024/04/12 03:35:34;;;;;;;;;;;;;;;19.90;39.76;100458.16;5418813;26;19936;-79
2024/04/12 03:40:45;;;;;;;;;;;;;;;19.84;40.17;100454.50;5416953;26;20386;-79
2024/04/12 03:43:10;;;;;;;;;;;;;;;19.82;40.06;100461.13;5418297;26;19929;-79
2024/04/12 03:45:36;;;;;;;;;;;;;;;19.82;40.10;100461.13;5418428;26;19998;-80
2024/04/12 03:48:13;;;;;;;;;;;;;;;19.82;40.11;100461.94;5418238;26;20312;-79
2024/04/12 03:50:41;;;;;;;;;;;;;;;19.83;40.46;100468.94;5416420;26;19928;-79
2024/04/12 03:53:15;;;;;;;;;;;;;;;19.84;40.01;100465.22;5418376;26;19941;-80
2024/04/12 03:55:44;;;;;;;;;;;;;;;19.85;39.58;100472.22;5418456;26;20002;-80
2024/04/12 03:58:10;;;;;;;;;;;;;;;19.83;40.04;100468.94;5418276;26;20370;-80
2024/04/12 04:00:38;;;;;;;;;;;;;;;19.82;39.72;100474.50;5416239;26;19929;-79
2024/04/12 04:03:09;;;;;;;;;;;;;;;19.82;39.99;100477.19;5418060;26;19997;-78
2024/04/12 04:05:34;;;;;;;;;;;;;;;19.83;40.15;100482.34;5418063;26;19929;-78
2024/04/12 04:08:00;;;;;;;;;;;;;;;19.86;39.77;100486.44;5418103;26;19993;-79
2024/04/12 04:10:25;;;;;;;;;;;;;;;19.87;39.72;100482.72;5418242;26;20356;-80
2024/04/12 04:12:51;;;;;;;;;;;;;;;19.86;40.22;100492.63;5418150;26;19929;-80
2024/04/12 04:15:16;;;;;;;;;;;;;;;19.87;40.22;100482.72;5417846;26;20374;-80
2024/04/12 04:17:51;;;;;;;;;;;;;;;19.89;40.26;100489.50;5416007;26;19979;-78
2024/04/12 04:20:17;;;;;;;;;;;;;;;19.92;39.77;100493.63;5418593;26;19937;-79
2024/04/12 04:22:49;;;;;;;;;;;;;;;19.91;39.66;100489.28;5418146;26;20263;-78
2024/04/12 04:25:14;;;;;;;;;;;;;;;19.89;40.09;100489.50;5418426;26;19938;-79
2024/04/12 04:27:39;;;;;;;;;;;;;;;19.88;39.89;100492.41;5416294;26;19929;-79
2024/04/12 04:30:10;;;;;;;;;;;;;;;19.92;38.86;100496.31;5416234;26;19962;-78
2024/04/12 04:32:36;;;;;;;;;;;;;;;19.93;39.73;100496.09;5418179;26;19929;-80
2024/04/12 04:35:05;;;;;;;;;;;;;;;19.93;40.20;100501.44;5416186;26;19937;-78
2024/04/12 04:37:31;;;;;;;;;;;;;;;19.91;40.45;100495.47;5418028;26;19929;-78
2024/04/12 04:39:56;;;;;;;;;;;;;;;19.92;39.88;100501.66;5418204;26;19974;-79
2024/04/12 04:42:23;;;;;;;;;;;;;;;19.92;40.94;100501.66;5418344;26;19933;-78
2024/04/12 04:44:48;;;;;;;;;;;;;;;19.96;39.55;100501.00;5416005;26;19933;-79
2024/04/12 04:47:14;;;;;;;;;;;;;;;19.97;40.13;100501.84;5415790;26;20002;-80
2024/04/12 04:49:40;;;;;;;;;;;;;;;19.99;40.00;100505.94;5418024;26;19935;-79
2024/04/12 04:52:08;;;;;;;;;;;;;;;20.03;39.50;100508.19;5418930;26;19929;-80
2024/04/12 04:54:36;;;;;;;;;;;;;;;20.06;39.23;100508.56;5419419;26;19941;-78
2024/04/12 04:57:01;;;;;;;;;;;;;;;20.08;40.38;100509.22;5421588;26;19937;-78
2024/04/12 04:59:32;;;;;;;;;;;;;;;20.15;39.21;100511.84;5421182;26;19933;-78
2024/04/12 05:01:57;;;;;;;;;;;;;;;20.17;39.23;100510.59;5422825;26;19929;-80
2024/04/12 05:04:22;;;;;;;;;;;;;;;20.19;39.19;100516.56;5421731;26;19929;-79
2024/04/12 05:06:50;;;;;;;;;;;;;;;20.20;39.84;100518.22;5419180;26;20352;-80
2024/04/12 05:09:18;;;;;;;;;;;;;;;20.25;39.76;100514.88;5418559;26;19936;-80
2024/04/12 05:11:44;;;;;;;;;;;;;;;20.29;40.06;100516.91;5418720;26;19937;-80
2024/04/12 05:14:44;;;;;;;;;;;;;;;20.31;38.96;100525.56;5420671;26;19933;-79
2024/04/12 05:17:04;;;;;;;;;;;;;;;20.33;39.15;100519.16;5420298;26;20256;-79
2024/04/12 05:19:39;;;;;;;;;;;;;;;20.38;39.33;100520.13;5420800;26;19937;-79
2024/04/12 05:22:06;;;;;;;;;;;;;;;20.40;39.81;100523.44;5420613;26;19933;-79
2024/04/12 05:24:33;;;;;;;;;;;;;;;20.42;39.23;100518.69;5420793;26;19998;-79
2024/04/12 05:27:04;;;;;;;;;;;;;;;20.41;40.61;100527.78;5420573;26;19936;-79
2024/04/12 05:29:29;;;;;;;;;;;;;;;20.44;40.27;100530.03;5418657;26;19936;-79
2024/04/12 05:31:57;;;;;;;;;;;;;;;20.45;39.94;100531.66;5420240;26;19929;-79
2024/04/12 05:34:23;;;;;;;;;;;;;;;20.49;39.84;100529.38;5418656;26;19935;-79
2024/04/12 05:36:48;;;;;;;;;;;;;;;20.56;39.70;100528.28;5420469;26;19929;-79
2024/04/12 05:39:13;;;;;;;;;;;;;;;20.61;39.52;100531.13;5420303;26;19928;-79
2024/04/12 05:41:39;;;;;;;;;;;;;;;20.66;39.96;100535.00;5420601;26;20266;-79
2024/04/12 05:44:07;;;;;;;;;;;;;;;20.71;39.88;100535.16;5420378;26;19998;-79
2024/04/12 05:46:38;;;;;;;;;;;;;;;20.76;40.11;100535.31;5418439;26;19936;-79
2024/04/12 05:49:09;;;;;;;;;;;;;;;20.80;39.82;100526.63;5418594;26;19936;-79
2024/04/12 05:51:34;;;;;;;;;;;;;;;20.82;38.99;100535.28;5418566;26;20087;-79
2024/04/12 05:54:10;;;;;;;;;;;;;;;20.80;39.58;100537.34;5418306;26;19956;-80
2024/04/12 05:56:39;;;;;;;;;;;;;;;20.83;40.04;100528.06;5419961;26;19994;-80
2024/04/12 05:59:04;;;;;;;;;;;;;;;20.88;39.16;100541.66;5420346;26;20328;-78
2024/04/12 06:01:33;;;;;;;;;;;;;;;20.87;38.68;100534.63;5417747;26;19929;-79
2024/04/12 06:03:59;;;;;;;;;;;;;;;20.81;40.22;100536.34;5416847;26;19998;-79
2024/04/12 06:06:30;;;;;;;;;;;;;;;20.85;39.65;100542.09;5419912;26;19937;-79
2024/04/12 06:08:58;;;;;;;;;;;;;;;20.87;40.23;100543.50;5420079;26;19997;-79
2024/04/12 06:11:25;;;;;;;;;;;;;;;20.89;39.77;100548.66;5419466;26;19961;-80
2024/04/12 06:13:53;;;;;;;;;;;;;;;20.89;39.49;100546.78;5417518;26;19929;-79
2024/04/12 06:16:19;;;;;;;;;;;;;;;20.85;40.23;100553.66;5419333;26;19944;-80
2024/04/12 06:18:45;;;;;;;;;;;;;;;20.87;39.71;100543.50;5418794;26;20367;-79
2024/04/12 06:21:11;;;;;;;;;;;;;;;20.92;39.89;100548.22;5419111;26;20332;-80
2024/04/12 06:23:37;;;;;;;;;;;;;;;20.94;40.42;100543.44;5419282;26;19933;-79
2024/04/12 06:26:03;;;;;;;;;;;;;;;21.01;39.44;100543.38;5419257;26;19941;-79
2024/04/12 06:28:30;;;;;;;;;;;;;;;21.02;39.78;100545.84;5419416;26;19936;-79
2024/04/12 06:30:59;;;;;;;;;;;;;;;21.02;40.36;100547.69;5417355;26;19929;-80
2024/04/12 06:33:24;;;;;;;;;;;;;;;21.04;39.60;100548.31;5417421;26;19936;-80
2024/04/12 06:35:52;;;;;;;;;;;;;;;21.12;41.40;100553.38;5419610;26;20277;-79
2024/04/12 06:38:21;;;;;;;;;;;;;;;21.16;41.48;100550.03;5419313;26;19929;-80
2024/04/12 06:40:53;;;;;;;;;;;;;;;21.17;40.97;100557.03;5419348;26;19936;-78
2024/04/12 06:43:20;;;;;;;;;;;;;;;21.19;41.20;100549.59;5417268;26;19936;-80
2024/04/12 06:45:56;;;;;;;;;;;;;;;21.25;41.25;100551.41;5419220;26;20358;-80
2024/04/12 06:48:26;;;;;;;;;;;;;;;21.32;40.73;100547.81;5417035;26;20286;-78
2024/04/12 06:50:59;;;;;;;;;;;;;;;21.37;41.34;100556.84;5418979;26;20035;-78
2024/04/12 06:53:25;;;;;;;;;;;;;;;21.38;40.79;100560.38;5420610;26;20274;-79
2024/04/12 06:55:55;;;;;;;;;;;;;;;21.40;40.93;100550.22;5441033;26;19941;-80
2024/04/12 06:58:21;;;;;;;;;;;;;;;21.47;40.52;100551.78;5436829;26;19928;-80
2024/04/12 07:00:53;;;;;;;;;;;;;;;21.56;39.66;100550.47;5418807;26;20259;-80
2024/04/12 07:03:22;;;;;;;;;;;;;;;21.63;39.41;100555.75;5446801;26;20367;-80
2024/04/12 07:05:48;;;;;;;;;;;;;;;21.72;39.21;100542.81;5418237;26;19969;-81
2024/04/12 07:08:16;;;;;;;;;;;;;;;21.75;39.67;100553.13;5418603;26;19936;-79
2024/04/12 07:10:50;;;;;;;;;;;;;;;21.81;39.63;100542.28;5416389;26;20023;-80
2024/04/12 07:13:16;;;;;;;;;;;;;;;21.91;39.19;100547.13;5418089;26;19929;-80
2024/04/12 07:15:41;;;;;;;;;;;;;;;21.98;39.40;100552.41;5420736;26;19993;-81
2024/04/12 07:18:11;;;;;;;;;;;;;;;22.03;39.63;100539.94;5450232;26;19997;-81
2024/04/12 07:20:40;;;;;;;;;;;;;;;22.05;39.39;100543.22;5444434;26;20350;-80
2024/04/12 07:23:05;;;;;;;;;;;;;;;22.12;39.00;100548.50;5421141;26;19948;-81
2024/04/12 07:25:33;;;;;;;;;;;;;;;22.19;38.58;100551.91;5419985;26;20371;-80
2024/04/12 07:28:00;;;;;;;;;;;;;;;22.28;38.39;100547.84;5454278;26;19956;-81
2024/04/12 07:30:27;;;;;;;;;;;;;;;22.34;38.71;100551.53;5452361;26;20270;-82
2024/04/12 07:32:53;;;;;;;;;;;;;;;22.38;38.79;100548.13;5454575;26;20133;-81
2024/04/12 07:35:26;;;;;;;;;;;;;;;22.42;38.55;100552.00;5451982;26;20270;-80
2024/04/12 07:37:54;;;;;;;;;;;;;;;22.41;38.60;100547.69;5453707;26;20385;-81
2024/04/12 07:40:20;;;;;;;;;;;;;;;22.43;38.08;100545.56;5448902;26;19929;-80
2024/04/12 07:42:46;;;;;;;;;;;;;;;22.55;38.35;100548.28;5447169;26;20327;-81
2024/04/12 07:45:17;;;;;;;;;;;;;;;22.65;38.96;100548.53;5426959;26;19935;-81
2024/04/12 07:47:52;;;;;;;;;;;;;;;22.68;38.19;100545.38;5436434;26;20360;-81
2024/04/12 07:50:21;;;;;;;;;;;;;;;22.77;37.83;100543.16;5450041;26;19935;-81
2024/04/12 07:52:50;;;;;;;;;;;;;;;22.84;38.08;100546.56;5447390;26;20340;-80
2024/04/12 07:55:23;;;;;;;;;;;;;;;22.90;37.97;100548.34;5452108;26;20419;-81
2024/04/12 07:57:52;;;;;;;;;;;;;;;23.01;37.74;100547.50;5442325;26;20262;-79
2024/04/12 08:00:27;;;;;;;;;;;;;;;23.14;36.89;100541.91;5451501;26;20257;-80
2024/04/12 08:02:55;;;;;;;;;;;;;;;23.23;37.91;100541.53;5447825;26;20320;-81
2024/04/12 08:05:25;;;;;;;;;;;;;;;23.23;37.57;100539.66;5481151;26;19936;-79
2024/04/12 08:07:56;;;;;;;;;;;;;;;23.30;37.29;100544.94;5450634;26;19940;-80
2024/04/12 08:10:29;;;;;;;;;;;;;;;23.32;37.46;100535.56;5444773;26;19929;-81
2024/04/12 08:12:57;;;;;;;;;;;;;;;23.28;37.52;100536.25;5444434;26;19933;-80
2024/04/12 08:15:22;;;;;;;;;;;;;;;21.68;37.67;100288.97;5448852;26;20252;-80
2024/04/12 08:17:49;;;;;;;;;;;;;;;23.28;38.30;100537.09;5451482;26;20350;-80
2024/04/12 08:20:16;;;;;;;;;;;;;;;23.31;37.33;100535.78;5429726;26;19936;-79
2024/04/12 08:22:46;;;;;;;;;;;;;;;23.37;37.86;100535.66;5428424;26;19929;-80
2024/04/12 08:25:17;;;;;;;;;;;;;;;23.43;37.75;100542.78;5447108;26;20321;-81
2024/04/12 08:27:43;;;;;;;;;;;;;;;23.49;37.32;100538.31;5415421;26;19936;-81
2024/04/12 08:30:13;;;;;;;;;;;;;;;23.58;37.38;100536.09;5424888;26;19929;-81
2024/04/12 08:32:39;;;;;;;;;;;;;;;23.59;37.77;100533.16;5431602;26;20365;-80
2024/04/12 08:35:08;;;;;;;;;;;;;;;23.67;36.92;100535.47;5448420;26;19929;-80
2024/04/12 08:37:39;;;;;;;;;;;;;;;23.72;36.83;100532.88;5445656;26;20369;-79
2024/04/12 08:40:11;;;;;;;;;;;;;;;23.84;37.20;100523.97;5451052;26;19929;-80
2024/04/12 08:42:37;;;;;;;;;;;;;;;23.86;37.39;100519.13;5453423;26;19959;-80
2024/04/12 08:45:12;;;;;;;;;;;;;;;23.87;37.31;100523.47;5438020;26;20946;-79
2024/04/12 08:47:51;;;;;;;;;;;;;;;23.93;36.92;100514.41;5443017;26;19998;-80
2024/04/12 08:50:17;;;;;;;;;;;;;;;23.96;36.77;100516.63;5450951;26;19941;-79
2024/04/12 08:52:48;;;;;;;;;;;;;;;24.02;36.58;100511.06;5422536;26;19936;-79
2024/04/12 08:55:20;;;;;;;;;;;;;;;24.26;36.63;100505.53;5433422;26;20266;-80
2024/04/12 08:57:47;;;;;;;;;;;;;;;24.44;36.04;100508.03;5451445;26;19928;-81
2024/04/12 09:00:17;;;;;;;;;;;;;;;24.62;35.91;100498.88;5450978;26;19928;-81
2024/04/12 09:02:48;;;;;;;;;;;;;;;24.83;35.77;100503.53;5448723;26;20259;-80
2024/04/12 09:05:22;;;;;;;;;;;;;;;25.03;35.21;100497.63;5429894;26;19937;-80
2024/04/12 09:07:50;;;;;;;;;;;;;;;25.20;34.97;100490.28;5478575;26;19929;-79
2024/04/12 09:10:16;;;;;;;;;;;;;;;25.32;34.85;100493.69;5448709;26;20245;-81
2024/04/12 09:12:44;;;;;;;;;;;;;;;25.58;34.55;100489.38;5446795;26;19953;-81
2024/04/12 09:15:13;;;;;;;;;;;;;;;25.76;34.30;100485.56;5450336;26;20265;-80
2024/04/12 09:17:41;;;;;;;;;;;;;;;26.00;33.68;100479.81;5442314;26;19928;-81
2024/04/12 09:20:29;;;;;;;;;;;;;;;26.17;33.39;100473.25;5448571;26;19932;-80
2024/04/12 09:22:54;;;;;;;;;;;;;;;26.41;33.58;100473.72;5429429;26;19928;-79
2024/04/12 09:25:26;;;;;;;;;;;;;;;26.56;32.68;100468.41;5449842;26;20383;-80
2024/04/12 09:27:51;;;;;;;;;;;;;;;26.63;33.05;100462.75;5452556;26;19929;-79
2024/04/12 09:33:16;;;;;;;;;;;;;;;27.06;32.22;100459.00;5452354;26;19943;-81
2024/04/12 09:35:45;;;;;;;;;;;;;;;27.15;31.87;100465.53;5450638;26;19939;-81
2024/04/12 09:38:16;;;;;;;;;;;;;;;27.21;31.87;100453.63;5453454;26;19939;-81
2024/04/12 09:40:42;;;;;;;;;;;;;;;27.35;31.65;100461.25;5453976;26;19976;-80
2024/04/12 09:43:31;;;;;;;;;;;;;;;27.57;31.57;100450.22;5453655;26;19928;-79
2024/04/12 09:46:08;;;;;;;;;;;;;;;27.89;31.03;100439.16;5453057;26;20346;-80
2024/04/12 10:38:09;;;;;;;;;;;;;;;26.97;31.31;100398.19;5418665;26;20356;-79
2024/04/12 10:40:36;;;;;;;;;;;;;;;27.58;29.34;100414.69;5416592;26;19940;-79
2024/04/12 10:43:02;;;;;;;;;;;;;;;27.83;29.62;100409.31;5418465;26;20267;-80
2024/04/12 10:45:29;;;;;;;;;;;;;;;28.07;28.24;100401.44;5384368;26;19942;-81
2024/04/12 10:47:55;;;;;;;;;;;;;;;28.34;29.47;100401.19;5380610;26;19953;-79
2024/04/12 10:50:23;;;;;;;;;;;;;;;28.73;28.37;100404.06;5383038;26;20437;-80
2024/04/12 10:52:48;;;;;;;;;;;;;;;28.98;27.68;100395.03;5380736;26;19930;-80
2024/04/12 10:55:16;;;;;;;;;;;;;;;29.39;26.55;100392.09;5406721;26;19936;-79
2024/04/12 10:57:47;;;;;;;;;;;;;;;29.53;26.95;100387.69;5398504;26;19961;-79
2024/04/12 11:00:16;;;;;;;;;;;;;;;29.84;26.12;100390.19;5416733;26;19929;-79
2024/04/12 11:02:45;;;;;;;;;;;;;;;29.74;27.25;100382.94;5416731;26;19936;-78
2024/04/12 11:07:43;;;;;;;;;;;;;;;28.90;26.61;100389.34;5383318;26;20422;-80
2024/04/12 11:10:22;;;;;;;;;;;;;;;28.78;27.45;100386.91;5381371;26;19930;-80
2024/04/12 11:12:51;;;;;;;;;;;;;;;29.02;27.35;100379.00;5388180;26;20363;-80
2024/04/12 11:31:47;;;;;;;;;;;;;;;30.65;25.34;100362.22;5412153;26;19935;-80
2024/04/12 11:34:17;;;;;;;;;;;;;;;30.66;24.27;100359.19;5396719;26;19937;-79
2024/04/12 11:36:43;;;;;;;;;;;;;;;30.75;25.63;100347.63;5416364;26;19936;-80
2024/04/12 11:39:17;;;;;;;;;;;;;;;30.83;23.83;100346.97;5416148;26;19929;-80
2024/04/12 11:41:44;;;;;;;;;;;;;;;31.02;24.04;100350.53;5418069;26;19929;-80
2024/04/12 11:44:10;;;;;;;;;;;;;;;30.99;23.97;100342.94;5412899;26;19942;-80
2024/04/12 11:46:35;;;;;;;;;;;;;;;30.61;24.94;100342.91;5415882;26;19929;-78
2024/04/12 11:49:07;;;;;;;;;;;;;;;30.20;24.34;100344.41;5416088;26;19929;-80
2024/04/12 11:51:33;;;;;;;;;;;;;;;30.33;25.04;100335.53;5411618;26;20330;-79
2024/04/12 11:53:59;;;;;;;;;;;;;;;30.63;23.95;100327.06;5381866;26;19930;-79
2024/04/12 11:56:24;;;;;;;;;;;;;;;30.92;23.50;100329.66;5382427;26;19995;-80
2024/04/12 11:58:51;;;;;;;;;;;;;;;31.18;23.89;100324.69;5412976;26;19936;-80
2024/04/12 12:01:16;;;;;;;;;;;;;;;31.41;23.33;100327.66;5413833;26;19979;-80
2024/04/12 12:03:42;;;;;;;;;;;;;;;31.46;22.91;100317.47;5446227;26;19997;-79
2024/04/12 12:06:07;;;;;;;;;;;;;;;31.56;21.87;100320.03;5413831;26;20335;-80
2024/04/12 12:08:37;;;;;;;;;;;;;;;31.48;23.00;100307.06;5416442;26;20378;-80
2024/04/12 12:11:05;;;;;;;;;;;;;;;31.61;22.48;100300.81;5411496;26;19929;-79
2024/04/12 12:13:32;;;;;;;;;;;;;;;31.74;22.73;100317.56;5417753;26;19933;-80
2024/04/12 12:15:58;;;;;;;;;;;;;;;31.68;23.58;100310.53;5417657;26;20362;-81
2024/04/12 12:18:27;;;;;;;;;;;;;;;31.71;22.30;100307.25;5417465;26;20015;-80
2024/04/12 12:20:52;;;;;;;;;;;;;;;31.76;21.24;100305.22;5414906;26;19935;-80
2024/04/12 12:23:19;;;;;;;;;;;;;;;31.76;21.94;100304.44;5413594;26;21951;-81
2024/04/12 12:25:47;;;;;;;;;;;;;;;31.71;22.21;100299.06;5407020;26;19940;-80
2024/04/12 12:28:13;;;;;;;;;;;;;;;31.72;21.93;100293.28;5397431;26;19957;-79
2024/04/12 12:30:38;;;;;;;;;;;;;;;31.78;22.85;100288.56;5415416;26;19928;-80
2024/04/12 12:33:07;;;;;;;;;;;;;;;31.85;21.43;100287.03;5409540;26;20367;-79
2024/04/12 12:35:33;;;;;;;;;;;;;;;31.84;22.16;100287.34;5381851;26;19962;-81
2024/04/12 12:38:01;;;;;;;;;;;;;;;31.67;21.29;100290.63;5381786;26;19999;-78
2024/04/12 12:40:29;;;;;;;;;;;;;;;31.32;22.38;100291.22;5409681;26;20357;-80
2024/04/12 12:42:55;;;;;;;;;;;;;;;31.24;23.37;100279.88;5380102;26;20048;-80
2024/04/12 12:45:20;;;;;;;;;;;;;;;31.36;22.77;100268.50;5403383;26;19936;-79
2024/04/12 12:47:47;;;;;;;;;;;;;;;31.48;22.86;100268.84;5417055;26;19929;-80
2024/04/12 12:50:19;;;;;;;;;;;;;;;31.55;22.25;100269.25;5417054;26;19933;-81
2024/04/12 12:52:51;;;;;;;;;;;;;;;31.16;23.16;100266.06;5417365;26;19975;-81
2024/04/12 12:55:21;;;;;;;;;;;;;;;30.67;23.75;100278.22;5415066;26;20369;-80
2024/04/12 12:57:47;;;;;;;;;;;;;;;30.22;23.62;100274.09;5417158;26;19933;-80
2024/04/12 13:00:19;;;;;;;;;;;;;;;29.91;23.88;100279.03;5413692;26;19979;-81
2024/04/12 13:02:46;;;;;;;;;;;;;;;30.02;23.64;100261.53;5404657;26;20378;-80
2024/04/12 13:05:14;;;;;;;;;;;;;;;30.32;23.77;100261.16;5388534;26;19953;-80
2024/04/12 13:07:40;;;;;;;;;;;;;;;30.56;23.60;100260.34;5379772;26;19930;-79
2024/04/12 13:10:12;;;;;;;;;;;;;;;30.84;22.84;100253.97;5388335;26;20324;-80
2024/04/12 13:12:38;;;;;;;;;;;;;;;31.25;22.38;100256.94;5385516;26;20000;-79
2024/04/12 13:15:03;;;;;;;;;;;;;;;31.48;22.42;100255.19;5396211;26;19945;-80
2024/04/12 13:17:36;;;;;;;;;;;;;;;31.68;22.93;100256.75;5418123;26;19933;-80
2024/04/12 13:20:05;;;;;;;;;;;;;;;31.78;21.54;100253.06;5417384;26;19936;-79
2024/04/12 13:22:32;;;;;;;;;;;;;;;31.87;22.21;100267.63;5417330;26;19929;-79
2024/04/12 13:24:57;;;;;;;;;;;;;;;31.47;23.04;100253.56;5411965;26;20361;-80
2024/04/12 13:27:23;;;;;;;;;;;;;;;31.23;21.83;100250.16;5393440;26;19982;-81
2024/04/12 13:29:48;;;;;;;;;;;;;;;31.08;23.19;100247.63;5398670;26;20364;-79
2024/04/12 13:32:14;;;;;;;;;;;;;;;30.74;23.49;100248.69;5382454;26;19938;-79
2024/04/12 13:34:39;;;;;;;;;;;;;;;30.63;23.24;100237.09;5417599;26;19933;-80
2024/04/12 13:37:06;;;;;;;;;;;;;;;30.94;22.99;100233.94;5413397;26;19953;-80
2024/04/12 13:39:34;;;;;;;;;;;;;;;31.19;22.98;100233.56;5400800;26;19936;-78
2024/04/12 13:42:03;;;;;;;;;;;;;;;31.32;22.90;100233.91;5419856;26;19965;-80
2024/04/12 13:52:42;;;;;;;;;;;;;;;31.95;21.37;100227.88;5419873;26;19936;-80
2024/04/12 13:55:10;;;;;;;;;;;;;;;32.10;22.87;100233.06;5414188;26;19944;-80
2024/04/12 13:57:38;;;;;;;;;;;;;;;32.07;22.37;100231.75;5409354;26;20035;-80
2024/04/12 14:00:09;;;;;;;;;;;;;;;32.03;23.06;100241.66;5419786;26;19928;-80
2024/04/12 14:02:35;;;;;;;;;;;;;;;32.06;22.48;100234.78;5393846;26;19929;-80